KIPT/IPT METAR and TAF weather

Enter ICAO airport designator
Station Type Date Time Source
KIPT METAR 2021/05/13 05:54 UTC NOAA

KIPT 130554Z AUTO 00000KT 10SM CLR 04/01 A3027 RMK AO2 SLP252 T00440006 10150 20044 51005


Station Type Date Time Source
KIPT Decoded METAR 2021/05/13 05:54 UTC NOAA

WILLIAMSPORT-LYCOMING COUNTY, PA, United States (KIPT) 41-15N 076-55W 164M
May 13, 2021 - 01:54 AM EDT / 2021.05.13 0554 UTC
Wind: Calm:0
Visibility: 10 mile(s):0
Sky conditions: clear
Temperature: 39.9 F (4.4 C)
Dew Point: 33.1 F (0.6 C)
Relative Humidity: 76%
Pressure (altimeter): 30.27 in. Hg (1025 hPa)
Pressure tendency: 0.01 inches (0.5 hPa) higher than three hours ago
ob: KIPT 130554Z AUTO 00000KT 10SM CLR 04/01 A3027 RMK AO2 SLP252 T00440006 10150 20044 51005
cycle: 6

Station Type Date Time Source
KIPT TAF 2021/05/13 06:39 UTC NOAA

TAF KIPT 130537Z 1306/1406 28004KT P6SM SKC
FM131500 35007KT P6SM SCT060
FM140000 30004KT P6SM SCT100

Example: see airport list